createdAt,value
2019-05-07T00:00:44.014Z,7.20
2019-05-07T00:03:13.392Z,7.20
2019-05-07T00:05:42.940Z,7.19
2019-05-07T00:08:12.324Z,7.21
2019-05-07T00:10:42.463Z,7.20
2019-05-07T00:13:12.878Z,7.23
2019-05-07T00:15:43.400Z,7.23
2019-05-07T00:18:12.866Z,7.25
2019-05-07T00:20:42.497Z,7.25
2019-05-07T00:23:12.457Z,7.26
2019-05-07T00:25:42.931Z,7.27
2019-05-07T00:28:12.391Z,7.28
2019-05-07T00:30:42.610Z,7.28
2019-05-07T00:33:13.122Z,7.28
2019-05-07T00:35:44.235Z,7.27
2019-05-07T00:38:15.232Z,7.30
2019-05-07T00:40:49.174Z,7.30
2019-05-07T00:43:22.496Z,7.30
2019-05-07T00:45:52.989Z,7.30
2019-05-07T00:48:23.490Z,7.29
2019-05-07T00:50:54.617Z,7.30
2019-05-07T00:53:23.985Z,7.29
2019-05-07T00:55:53.377Z,7.27
2019-05-07T00:58:26.494Z,7.29
2019-05-07T01:00:53.819Z,7.29
2019-05-07T01:03:23.208Z,7.28
2019-05-07T01:05:52.910Z,7.28
2019-05-07T01:08:22.737Z,7.27
2019-05-07T01:10:52.827Z,7.28
2019-05-07T01:13:23.432Z,7.28
2019-05-07T01:15:53.936Z,7.28
2019-05-07T01:18:23.569Z,7.28
2019-05-07T01:20:53.399Z,7.29
2019-05-07T01:23:23.788Z,7.27
2019-05-07T01:25:53.185Z,7.28
2019-05-07T01:28:22.628Z,7.28
2019-05-07T01:30:53.082Z,7.28
2019-05-07T01:33:26.456Z,7.25
2019-05-07T01:36:09.280Z,7.24
2019-05-07T01:38:38.666Z,7.22
2019-05-07T01:41:08.018Z,7.22
2019-05-07T01:43:37.394Z,7.20
2019-05-07T01:46:06.848Z,7.18
2019-05-07T01:48:36.218Z,7.18
2019-05-07T01:51:05.593Z,7.18
2019-05-07T01:53:34.961Z,7.18
2019-05-07T01:56:04.395Z,7.17
2019-05-07T01:58:33.762Z,7.17
2019-05-07T02:01:03.118Z,7.16
2019-05-07T02:03:34.102Z,7.16
2019-05-07T02:06:05.124Z,7.15
2019-05-07T02:08:53.025Z,7.16
2019-05-07T02:11:26.782Z,7.15
2019-05-07T02:13:56.246Z,7.13
2019-05-07T02:16:25.609Z,7.11
2019-05-07T02:18:54.997Z,7.09
2019-05-07T02:21:24.440Z,7.06
2019-05-07T02:23:53.801Z,7.08
2019-05-07T02:26:23.180Z,7.08
2019-05-07T02:28:52.551Z,7.09
2019-05-07T02:31:23.340Z,7.09
2019-05-07T02:33:54.154Z,7.10
2019-05-07T02:36:24.110Z,7.10
2019-05-07T02:38:55.116Z,7.09
2019-05-07T02:41:33.124Z,7.07
2019-05-07T02:44:04.229Z,7.06
2019-05-07T02:46:38.185Z,7.03
2019-05-07T02:49:25.332Z,7.03
2019-05-07T02:52:08.087Z,7.04
2019-05-07T02:54:56.892Z,7.04
2019-05-07T02:57:27.728Z,7.04
2019-05-07T02:59:57.115Z,7.03
2019-05-07T03:02:26.551Z,7.00
2019-05-07T03:04:57.054Z,6.99
2019-05-07T03:07:26.438Z,6.99
2019-05-07T03:09:55.824Z,6.94
2019-05-07T03:12:25.175Z,6.91
2019-05-07T03:14:55.799Z,6.89
2019-05-07T03:17:25.233Z,6.83
2019-05-07T03:19:55.796Z,6.77
2019-05-07T03:22:26.103Z,6.70
2019-05-07T03:25:15.258Z,6.63
2019-05-07T03:27:44.664Z,6.57
2019-05-07T03:30:17.108Z,6.47
2019-05-07T03:32:59.869Z,6.40
2019-05-07T03:35:36.447Z,6.34
2019-05-07T03:38:03.461Z,6.28
2019-05-07T03:40:34.348Z,6.25
2019-05-07T03:43:06.075Z,6.22
2019-05-07T03:45:36.401Z,6.21
2019-05-07T03:48:13.327Z,6.18
2019-05-07T03:50:43.100Z,6.18
2019-05-07T03:53:14.319Z,6.19
2019-05-07T03:55:44.611Z,6.20
2019-05-07T03:58:14.839Z,6.21
2019-05-07T04:00:44.815Z,6.21
2019-05-07T04:03:19.044Z,6.21
2019-05-07T04:05:45.323Z,6.23
2019-05-07T04:08:14.685Z,6.23
2019-05-07T04:10:44.604Z,6.23
2019-05-07T04:13:14.040Z,6.22
2019-05-07T04:15:44.193Z,6.22
2019-05-07T04:18:13.722Z,6.20
2019-05-07T04:20:43.814Z,6.20
2019-05-07T04:23:14.050Z,6.17
2019-05-07T04:26:04.237Z,6.13
2019-05-07T04:28:35.645Z,6.09
2019-05-07T04:31:06.346Z,6.06
2019-05-07T04:33:37.336Z,6.03
2019-05-07T04:36:08.358Z,6.03
2019-05-07T04:38:37.727Z,6.04
2019-05-07T04:41:07.088Z,6.07
2019-05-07T04:43:36.461Z,6.10
2019-05-07T04:46:06.899Z,6.14
2019-05-07T04:48:36.298Z,6.18
2019-05-07T04:51:07.293Z,6.20
2019-05-07T04:53:36.674Z,6.24
2019-05-07T04:56:06.048Z,6.28
2019-05-07T04:58:35.400Z,6.34
2019-05-07T05:01:06.164Z,6.40
2019-05-07T05:03:39.009Z,6.46
2019-05-07T05:06:06.592Z,6.54
2019-05-07T05:08:35.955Z,6.64
2019-05-07T05:11:05.313Z,6.75
2019-05-07T05:13:34.702Z,6.82
2019-05-07T05:16:05.887Z,6.89
2019-05-07T05:18:35.277Z,6.97
2019-05-07T05:21:06.337Z,7.03
2019-05-07T05:23:46.414Z,7.12
2019-05-07T05:26:15.775Z,7.20
2019-05-07T05:28:45.132Z,7.27
2019-05-07T05:31:14.509Z,7.36
2019-05-07T05:33:43.882Z,7.46
2019-05-07T05:36:13.316Z,7.56
2019-05-07T05:38:42.659Z,7.67
2019-05-07T05:41:12.443Z,7.75
2019-05-07T05:43:43.497Z,7.83
2019-05-07T05:46:14.514Z,7.89
2019-05-07T05:48:43.887Z,7.96
2019-05-07T05:51:32.371Z,7.98
2019-05-07T05:54:03.591Z,8.03
2019-05-07T05:56:34.594Z,8.10
2019-05-07T05:59:08.208Z,8.19
2019-05-07T06:01:52.096Z,8.30
2019-05-07T06:04:23.133Z,8.36
2019-05-07T06:07:11.198Z,8.41
2019-05-07T06:09:42.261Z,8.53
2019-05-07T06:12:19.302Z,8.61
2019-05-07T06:14:56.303Z,8.75
2019-05-07T06:17:33.280Z,8.94
2019-05-07T06:20:22.440Z,9.27
2019-05-07T06:23:09.185Z,9.57
2019-05-07T06:25:39.201Z,9.86
2019-05-07T06:28:08.564Z,10.13
2019-05-07T06:30:37.950Z,10.43
2019-05-07T06:33:07.400Z,10.75
2019-05-07T06:35:36.753Z,11.09
2019-05-07T06:38:07.913Z,11.35
2019-05-07T06:40:51.927Z,11.55
2019-05-07T06:43:34.989Z,11.69
2019-05-07T06:46:05.486Z,12.06
2019-05-07T06:48:42.294Z,12.06
2019-05-07T06:51:05.936Z,12.25
2019-05-07T06:53:35.334Z,12.31
2019-05-07T06:56:04.825Z,12.46
2019-05-07T06:58:41.999Z,12.61
2019-05-07T07:01:13.269Z,12.85
2019-05-07T07:03:59.362Z,13.13
2019-05-07T07:06:39.513Z,13.31
2019-05-07T07:09:28.320Z,13.38
2019-05-07T07:12:02.259Z,13.44
2019-05-07T07:14:33.194Z,13.65
2019-05-07T07:17:03.605Z,13.82
2019-05-07T07:19:35.880Z,13.97
2019-05-07T07:22:04.412Z,13.95
2019-05-07T07:24:33.777Z,13.95
2019-05-07T07:27:03.176Z,14.01
2019-05-07T07:29:35.141Z,14.09
2019-05-07T07:32:06.217Z,14.03
2019-05-07T07:34:37.228Z,14.08
2019-05-07T07:37:10.939Z,14.10
2019-05-07T07:39:39.338Z,14.35
2019-05-07T07:42:09.484Z,14.68
2019-05-07T07:44:38.857Z,14.85
2019-05-07T07:47:08.233Z,14.99
2019-05-07T07:49:37.632Z,15.17
2019-05-07T07:52:07.014Z,15.37
2019-05-07T07:54:36.363Z,15.47
2019-05-07T07:57:12.475Z,15.61
2019-05-07T07:59:48.656Z,15.54
2019-05-07T08:02:19.688Z,15.14
2019-05-07T08:04:49.066Z,15.07
2019-05-07T08:07:18.440Z,15.20
2019-05-07T08:09:47.824Z,15.39
2019-05-07T08:12:17.177Z,15.35
2019-05-07T08:14:46.539Z,15.54
2019-05-07T08:17:15.922Z,15.83
2019-05-07T08:19:45.285Z,16.01
2019-05-07T08:22:14.639Z,16.00
2019-05-07T08:24:43.994Z,16.00
2019-05-07T08:27:15.322Z,15.86
2019-05-07T08:29:44.410Z,15.75
2019-05-07T08:32:18.065Z,15.83
2019-05-07T08:34:52.222Z,15.88
2019-05-07T08:37:24.292Z,15.72
2019-05-07T08:39:52.657Z,15.81
2019-05-07T08:42:22.809Z,15.50
2019-05-07T08:45:00.048Z,15.26
2019-05-07T08:47:31.907Z,15.29
2019-05-07T08:50:02.904Z,15.33
2019-05-07T08:52:32.759Z,15.58
2019-05-07T08:55:02.320Z,15.61
2019-05-07T08:57:32.638Z,15.60
2019-05-07T09:00:04.614Z,15.62
2019-05-07T09:02:33.070Z,15.49
2019-05-07T09:05:02.937Z,15.24
2019-05-07T09:07:33.465Z,14.96
2019-05-07T09:10:02.911Z,14.90
2019-05-07T09:12:32.273Z,15.76
2019-05-07T09:15:02.329Z,15.66
2019-05-07T09:17:31.928Z,15.45
2019-05-07T09:20:02.648Z,15.08
2019-05-07T09:22:32.483Z,14.69
2019-05-07T09:25:03.056Z,14.49
2019-05-07T09:27:34.320Z,14.38
2019-05-07T09:30:09.252Z,14.21
2019-05-07T09:32:52.453Z,14.00
2019-05-07T09:35:29.514Z,13.86
2019-05-07T09:37:58.904Z,13.62
2019-05-07T09:40:28.301Z,13.53
2019-05-07T09:42:57.778Z,13.34
2019-05-07T09:45:28.119Z,13.28
2019-05-07T09:47:57.564Z,13.18
2019-05-07T09:50:26.943Z,12.99
2019-05-07T09:52:56.304Z,12.86
2019-05-07T09:55:25.798Z,12.83
2019-05-07T09:57:55.157Z,12.82
2019-05-07T10:00:25.165Z,12.85
2019-05-07T10:02:56.691Z,12.83
2019-05-07T10:05:25.735Z,12.78
2019-05-07T10:07:55.092Z,12.81
2019-05-07T10:10:24.478Z,12.82
2019-05-07T10:13:01.950Z,12.81
2019-05-07T10:15:33.126Z,12.83
2019-05-07T10:18:15.941Z,12.89
2019-05-07T10:20:45.846Z,13.06
2019-05-07T10:23:22.782Z,13.25
2019-05-07T10:25:53.241Z,13.28
2019-05-07T10:28:23.039Z,13.43
2019-05-07T10:30:52.749Z,13.48
2019-05-07T10:33:22.906Z,13.57
2019-05-07T10:35:52.931Z,13.65
2019-05-07T10:38:23.356Z,13.79
2019-05-07T10:40:52.761Z,13.96
2019-05-07T10:43:23.154Z,14.13
2019-05-07T10:45:59.850Z,14.33
2019-05-07T10:48:32.026Z,14.52
2019-05-07T10:51:02.697Z,14.74
2019-05-07T10:53:32.200Z,14.85
2019-05-07T10:56:02.714Z,14.89
2019-05-07T10:58:32.249Z,14.86
2019-05-07T11:01:02.850Z,14.72
2019-05-07T11:03:32.633Z,14.69
2019-05-07T11:06:02.013Z,14.69
2019-05-07T11:08:32.901Z,14.67
2019-05-07T11:11:02.916Z,14.73
2019-05-07T11:13:32.450Z,14.74
2019-05-07T11:16:11.633Z,14.75
2019-05-07T11:18:42.643Z,14.69
2019-05-07T11:21:12.084Z,14.61
2019-05-07T11:23:41.887Z,14.58
2019-05-07T11:26:11.751Z,14.54
2019-05-07T11:28:41.254Z,14.45
2019-05-07T11:31:12.387Z,14.52
2019-05-07T11:33:41.855Z,14.56
2019-05-07T11:36:11.240Z,14.65
2019-05-07T11:38:41.816Z,14.71
2019-05-07T11:41:12.779Z,14.75
2019-05-07T11:43:46.804Z,14.89
2019-05-07T11:46:23.809Z,15.11
2019-05-07T11:49:06.368Z,15.23
2019-05-07T11:51:37.422Z,15.46
2019-05-07T11:54:12.653Z,15.50
2019-05-07T11:56:42.913Z,15.53
2019-05-07T11:59:13.370Z,15.71
2019-05-07T12:01:47.801Z,15.91
2019-05-07T12:04:15.802Z,16.16
2019-05-07T12:06:45.182Z,16.26
2019-05-07T12:09:14.554Z,16.34
2019-05-07T12:11:43.918Z,16.35
2019-05-07T12:14:13.270Z,16.22
2019-05-07T12:16:42.835Z,16.08
2019-05-07T12:19:13.728Z,16.10
2019-05-07T12:21:43.304Z,16.09
2019-05-07T12:24:16.146Z,16.01
2019-05-07T12:26:44.205Z,15.93
2019-05-07T12:29:13.627Z,15.73
2019-05-07T12:31:47.744Z,15.60
2019-05-07T12:34:18.743Z,15.61
2019-05-07T12:36:48.102Z,15.58
2019-05-07T12:39:17.502Z,15.48
2019-05-07T12:41:46.879Z,15.39
2019-05-07T12:44:16.250Z,15.23
2019-05-07T12:46:45.608Z,15.12
2019-05-07T12:49:14.958Z,15.12
2019-05-07T12:51:48.850Z,15.03
2019-05-07T12:54:19.866Z,14.87
2019-05-07T12:56:49.222Z,14.77
2019-05-07T12:59:18.609Z,14.63
2019-05-07T13:01:52.567Z,14.44
2019-05-07T13:04:23.574Z,14.28
2019-05-07T13:06:57.363Z,14.14
2019-05-07T13:09:26.739Z,14.04
2019-05-07T13:11:56.165Z,14.00
2019-05-07T13:14:25.590Z,13.92
2019-05-07T13:16:54.947Z,13.91
2019-05-07T13:19:24.361Z,13.86
2019-05-07T13:21:53.717Z,13.82
2019-05-07T13:24:23.083Z,13.80
2019-05-07T13:26:52.441Z,13.92
2019-05-07T13:29:22.270Z,14.05
2019-05-07T13:31:54.650Z,14.17
2019-05-07T13:34:24.275Z,14.36
2019-05-07T13:37:04.635Z,14.58
2019-05-07T13:39:35.871Z,14.83
2019-05-07T13:42:12.925Z,15.13
2019-05-07T13:44:43.927Z,15.44
2019-05-07T13:47:17.510Z,15.61
2019-05-07T13:49:47.935Z,15.77
2019-05-07T13:52:17.348Z,15.89
2019-05-07T13:54:46.837Z,15.93
2019-05-07T13:57:16.188Z,15.88
2019-05-07T13:59:45.947Z,15.82
2019-05-07T14:02:17.024Z,15.84
2019-05-07T14:04:46.470Z,15.88
2019-05-07T14:07:16.361Z,15.82
2019-05-07T14:09:45.749Z,15.76
2019-05-07T14:12:15.103Z,15.77
2019-05-07T14:14:44.450Z,15.72
2019-05-07T14:17:13.827Z,15.81
2019-05-07T14:19:43.196Z,15.81
2019-05-07T14:22:18.020Z,15.87
2019-05-07T14:24:43.651Z,15.92
2019-05-07T14:27:13.007Z,16.02
2019-05-07T14:29:42.541Z,15.98
2019-05-07T14:32:13.556Z,15.87
2019-05-07T14:35:02.100Z,15.82
2019-05-07T14:37:33.239Z,15.68
2019-05-07T14:40:02.848Z,15.59
2019-05-07T14:42:49.739Z,15.55
2019-05-07T14:45:19.257Z,15.40
2019-05-07T14:47:48.614Z,15.12
2019-05-07T14:50:18.226Z,15.08
2019-05-07T14:52:47.642Z,15.13
2019-05-07T14:55:17.156Z,15.16
2019-05-07T14:57:46.581Z,15.13
2019-05-07T15:00:16.547Z,15.12
2019-05-07T15:02:46.168Z,15.11
2019-05-07T15:05:15.995Z,15.02
2019-05-07T15:07:45.347Z,15.03
2019-05-07T15:10:14.961Z,15.11
2019-05-07T15:12:44.398Z,15.08
2019-05-07T15:15:14.119Z,15.02
2019-05-07T15:17:45.695Z,15.03
2019-05-07T15:20:16.014Z,15.00
2019-05-07T15:22:55.745Z,14.97
2019-05-07T15:25:25.101Z,14.97
2019-05-07T15:27:54.474Z,14.92
2019-05-07T15:30:25.484Z,14.92
2019-05-07T15:32:54.834Z,14.93
2019-05-07T15:35:24.259Z,14.90
2019-05-07T15:37:53.772Z,14.93
2019-05-07T15:40:23.115Z,14.87
2019-05-07T15:42:53.463Z,14.71
2019-05-07T15:45:23.540Z,14.62
2019-05-07T15:47:54.549Z,14.39
2019-05-07T15:50:25.525Z,14.20
2019-05-07T15:52:58.655Z,14.02
2019-05-07T15:55:27.569Z,13.94
2019-05-07T15:57:57.567Z,13.97
2019-05-07T16:00:29.288Z,14.00
2019-05-07T16:03:02.058Z,13.99
2019-05-07T16:05:31.941Z,13.98
2019-05-07T16:08:01.769Z,13.95
2019-05-07T16:10:32.518Z,13.90
2019-05-07T16:13:01.867Z,13.83
2019-05-07T16:15:32.025Z,13.80
2019-05-07T16:18:03.138Z,13.75
2019-05-07T16:20:32.714Z,13.67
2019-05-07T16:23:14.014Z,13.62
2019-05-07T16:25:33.675Z,13.59
2019-05-07T16:28:04.938Z,13.57
2019-05-07T16:30:34.105Z,13.52
2019-05-07T16:33:03.560Z,13.44
2019-05-07T16:35:32.933Z,13.38
2019-05-07T16:38:02.279Z,13.33
2019-05-07T16:40:32.350Z,13.28
2019-05-07T16:43:02.753Z,13.23
2019-05-07T16:45:32.925Z,13.17
2019-05-07T16:48:03.187Z,13.14
2019-05-07T16:50:33.618Z,13.13
2019-05-07T16:53:03.043Z,13.13
2019-05-07T16:55:37.009Z,13.15
2019-05-07T16:58:14.058Z,13.17
2019-05-07T17:00:53.934Z,13.21
2019-05-07T17:03:27.579Z,13.25
2019-05-07T17:05:56.952Z,13.32
2019-05-07T17:08:33.417Z,13.37
2019-05-07T17:11:03.151Z,13.37
2019-05-07T17:13:33.478Z,13.32
2019-05-07T17:16:03.456Z,13.26
2019-05-07T17:18:32.988Z,13.21
2019-05-07T17:21:02.368Z,13.12
2019-05-07T17:23:43.774Z,13.03
2019-05-07T17:26:04.925Z,12.95
2019-05-07T17:28:34.423Z,12.93
2019-05-07T17:31:03.807Z,12.90
2019-05-07T17:33:33.171Z,12.88
2019-05-07T17:36:02.630Z,12.90
2019-05-07T17:38:33.038Z,12.96
2019-05-07T17:41:10.865Z,13.04
2019-05-07T17:43:33.481Z,13.06
2019-05-07T17:46:02.990Z,13.07
2019-05-07T17:48:33.103Z,13.03
2019-05-07T17:51:06.899Z,12.96
2019-05-07T17:53:36.430Z,12.88
2019-05-07T17:56:05.853Z,12.79
2019-05-07T17:58:35.228Z,12.69
2019-05-07T18:01:05.248Z,12.58
2019-05-07T18:03:36.255Z,12.46
2019-05-07T18:06:06.327Z,12.39
2019-05-07T18:08:35.751Z,12.33
2019-05-07T18:11:17.317Z,12.31
2019-05-07T18:13:36.395Z,12.31
2019-05-07T18:16:12.001Z,12.30
2019-05-07T18:18:43.059Z,12.27
2019-05-07T18:21:12.680Z,12.21
2019-05-07T18:23:42.016Z,12.15
2019-05-07T18:26:16.410Z,12.09
2019-05-07T18:28:42.461Z,12.02
2019-05-07T18:31:12.566Z,11.93
2019-05-07T18:33:52.224Z,11.82
2019-05-07T18:36:22.717Z,11.73
2019-05-07T18:38:52.837Z,11.64
2019-05-07T18:41:22.499Z,11.55
2019-05-07T18:43:54.471Z,11.46
2019-05-07T18:46:22.886Z,11.39
2019-05-07T18:48:52.262Z,11.32
2019-05-07T18:51:21.614Z,11.21
2019-05-07T18:53:51.962Z,11.08
2019-05-07T18:56:22.105Z,10.98
2019-05-07T18:58:52.135Z,10.87
2019-05-07T19:01:23.124Z,10.76
2019-05-07T19:03:52.944Z,10.64
2019-05-07T19:06:22.438Z,10.52
2019-05-07T19:08:52.684Z,10.39
2019-05-07T19:11:22.794Z,10.30
2019-05-07T19:13:53.563Z,10.22
2019-05-07T19:16:23.446Z,10.11
2019-05-07T19:18:52.808Z,10.02
2019-05-07T19:21:22.489Z,9.79
2019-05-07T19:23:52.947Z,9.69
2019-05-07T19:26:22.487Z,9.69
2019-05-07T19:28:51.885Z,9.60
2019-05-07T19:31:22.000Z,9.50
2019-05-07T19:33:52.534Z,9.43
2019-05-07T19:36:22.429Z,9.38
2019-05-07T19:38:52.605Z,9.30
2019-05-07T19:41:22.031Z,9.23
2019-05-07T19:43:52.748Z,9.16
2019-05-07T19:46:22.864Z,9.08
2019-05-07T19:48:52.311Z,9.01
2019-05-07T19:51:21.663Z,8.94
2019-05-07T19:53:52.584Z,8.88
2019-05-07T19:56:23.622Z,8.83
2019-05-07T19:58:53.142Z,8.80
2019-05-07T20:01:24.289Z,8.77
2019-05-07T20:03:53.667Z,8.75
2019-05-07T20:06:23.542Z,8.75
2019-05-07T20:08:53.132Z,8.74
2019-05-07T20:11:33.038Z,8.72
2019-05-07T20:14:02.466Z,8.67
2019-05-07T20:16:32.906Z,8.64
2019-05-07T20:19:02.540Z,8.62
2019-05-07T20:21:32.684Z,8.62
2019-05-07T20:24:02.125Z,8.62
2019-05-07T20:26:32.299Z,8.63
2019-05-07T20:29:03.026Z,8.64
2019-05-07T20:31:33.567Z,8.62
2019-05-07T20:34:03.169Z,8.59
2019-05-07T20:36:32.904Z,8.55
2019-05-07T20:39:02.477Z,8.49
2019-05-07T20:41:33.444Z,8.45
2019-05-07T20:44:03.098Z,8.37
2019-05-07T20:46:33.168Z,8.31
2019-05-07T20:49:03.097Z,8.22
2019-05-07T20:51:32.750Z,8.15
2019-05-07T20:54:03.767Z,8.07
2019-05-07T20:56:34.791Z,7.97
2019-05-07T20:59:04.133Z,7.91
2019-05-07T21:01:34.478Z,7.84
2019-05-07T21:04:03.851Z,7.78
2019-05-07T21:06:33.221Z,7.71
2019-05-07T21:09:02.573Z,7.67
2019-05-07T21:11:33.609Z,7.62
2019-05-07T21:14:03.373Z,7.59
2019-05-07T21:16:33.824Z,7.55
2019-05-07T21:19:03.207Z,7.52
2019-05-07T21:21:32.850Z,7.50
2019-05-07T21:24:02.336Z,7.46
2019-05-07T21:26:32.758Z,7.42
2019-05-07T21:29:03.080Z,7.39
2019-05-07T21:31:32.609Z,7.37
2019-05-07T21:34:03.152Z,7.38
2019-05-07T21:36:32.632Z,7.39
2019-05-07T21:39:02.453Z,7.42
2019-05-07T21:41:33.649Z,7.45
2019-05-07T21:44:03.041Z,7.45
2019-05-07T21:46:33.026Z,7.45
2019-05-07T21:49:03.397Z,7.42
2019-05-07T21:51:32.748Z,7.39
2019-05-07T21:54:09.387Z,7.40
2019-05-07T21:56:46.071Z,7.43
2019-05-07T21:59:17.074Z,7.50
2019-05-07T22:01:48.080Z,7.60
2019-05-07T22:04:17.454Z,7.70
2019-05-07T22:06:46.793Z,7.82
2019-05-07T22:09:16.500Z,7.91
2019-05-07T22:11:46.032Z,8.01
2019-05-07T22:14:15.508Z,8.09
2019-05-07T22:16:44.862Z,8.15
2019-05-07T22:19:14.208Z,8.24
2019-05-07T22:21:43.559Z,8.33
2019-05-07T22:24:15.096Z,8.42
2019-05-07T22:26:43.999Z,8.47
2019-05-07T22:29:14.340Z,8.54
2019-05-07T22:31:48.084Z,8.60
2019-05-07T22:34:34.175Z,8.64
2019-05-07T22:37:04.000Z,8.69
2019-05-07T22:39:43.960Z,8.74
2019-05-07T22:42:17.962Z,8.77
2019-05-07T22:44:47.352Z,8.80
2019-05-07T22:47:22.193Z,8.84
2019-05-07T22:49:53.733Z,8.89
2019-05-07T22:52:22.532Z,8.92
2019-05-07T22:54:51.933Z,8.94
2019-05-07T22:57:25.633Z,8.98
2019-05-07T22:59:54.989Z,9.01
2019-05-07T23:02:24.382Z,9.04
2019-05-07T23:04:53.748Z,9.05
2019-05-07T23:07:23.077Z,9.10
2019-05-07T23:09:52.440Z,9.11
2019-05-07T23:12:22.056Z,9.13
2019-05-07T23:14:53.667Z,9.13
2019-05-07T23:17:22.549Z,9.14
2019-05-07T23:19:54.871Z,9.16
2019-05-07T23:22:22.964Z,9.16
2019-05-07T23:24:52.319Z,9.18
2019-05-07T23:27:22.429Z,9.19
2019-05-07T23:29:52.969Z,9.21
2019-05-07T23:32:22.403Z,9.22
2019-05-07T23:34:52.735Z,9.25
2019-05-07T23:37:22.588Z,9.27
2019-05-07T23:39:53.663Z,9.27
2019-05-07T23:42:24.636Z,9.28
2019-05-07T23:44:53.977Z,9.29
2019-05-07T23:47:24.300Z,9.29
2019-05-07T23:49:53.661Z,9.34
2019-05-07T23:52:23.002Z,9.35
2019-05-07T23:54:52.366Z,9.36
2019-05-07T23:57:23.186Z,9.37
2019-05-07T23:59:53.066Z,9.37
